Time;durP1;ratioP1;P1;durP2;ratioP2;P2;SDS_P1;SDS_P2;PMS_P1;PMS_P2;Temp;Humidity;BMP_temperature;BMP_pressure;BME280_temperature;BME280_humidity;BME280_pressure;Samples;Min_cycle;Max_cycle;Signal;HPM_P1;HPM_P2
2022/09/19 00:00:37;;;;;;;1.30;1.10;;;12.80;51.20;;;;;;5023074;28;21067;-69
2022/09/19 00:03:03;;;;;;;1.30;1.10;;;12.80;51.20;;;;;;5024720;28;20800;-69
2022/09/19 00:05:29;;;;;;;1.30;1.07;;;13.00;50.10;;;;;;5016283;28;20664;-68
2022/09/19 00:07:54;;;;;;;1.30;1.10;;;12.60;52.50;;;;;;5024193;28;20217;-69
2022/09/19 00:10:20;;;;;;;1.30;1.10;;;12.40;53.40;;;;;;5019373;28;20231;-70
2022/09/19 00:12:45;;;;;;;1.30;1.10;;;12.40;55.10;;;;;;5022419;28;20246;-71
2022/09/19 00:15:12;;;;;;;1.30;1.20;;;12.30;61.80;;;;;;5022758;28;20620;-69
2022/09/19 00:17:37;;;;;;;1.30;1.10;;;12.30;63.20;;;;;;5024138;28;20508;-69
2022/09/19 00:20:04;;;;;;;1.30;1.10;;;12.50;60.00;;;;;;5016413;28;20427;-70
2022/09/19 00:22:29;;;;;;;1.30;1.10;;;12.60;60.60;;;;;;5011252;28;20627;-69
2022/09/19 00:24:55;;;;;;;1.30;1.10;;;12.10;63.10;;;;;;5019942;28;20538;-69
2022/09/19 00:27:25;;;;;;;1.30;1.00;;;12.10;64.60;;;;;;5020401;28;20547;-70
2022/09/19 00:29:53;;;;;;;1.30;1.00;;;11.80;65.70;;;;;;5018356;28;20188;-70
2022/09/19 00:32:21;;;;;;;1.30;1.10;;;11.80;65.80;;;;;;5025623;28;20467;-72
2022/09/19 00:34:48;;;;;;;1.30;1.00;;;12.30;65.50;;;;;;5011646;28;20428;-71
2022/09/19 00:37:16;;;;;;;1.30;1.00;;;12.80;59.50;;;;;;5012373;28;20459;-70
2022/09/19 00:39:42;;;;;;;1.30;1.10;;;13.30;57.80;;;;;;5011999;28;20981;-70
2022/09/19 00:42:20;;;;;;;1.30;1.00;;;13.00;57.00;;;;;;5023589;28;20479;-70
2022/09/19 00:44:53;;;;;;;1.30;1.10;;;13.20;55.60;;;;;;5024636;28;20238;-70
2022/09/19 00:47:25;;;;;;;1.30;1.00;;;13.30;56.40;;;;;;5024367;28;20434;-70
2022/09/19 00:49:54;;;;;;;1.30;1.00;;;13.50;55.20;;;;;;5021481;28;20468;-70
2022/09/19 00:52:41;;;;;;;1.30;1.10;;;13.20;55.20;;;;;;5028458;28;20591;-70
2022/09/19 00:55:07;;;;;;;1.30;1.10;;;13.20;55.00;;;;;;5015161;28;20432;-70
2022/09/19 00:57:47;;;;;;;1.30;1.10;;;12.80;55.30;;;;;;5021157;28;20896;-70
2022/09/19 01:00:13;;;;;;;1.30;1.00;;;12.50;57.90;;;;;;5028107;28;20411;-70
2022/09/19 01:02:39;;;;;;;1.30;1.07;;;12.60;58.80;;;;;;5023007;28;20458;-70
2022/09/19 01:05:07;;;;;;;1.30;1.10;;;13.10;56.90;;;;;;5021256;28;20886;-70
2022/09/19 01:07:51;;;;;;;1.30;1.10;;;13.20;56.70;;;;;;5028492;28;20580;-70
2022/09/19 01:10:37;;;;;;;1.30;1.10;;;13.70;53.00;;;;;;5017614;28;20455;-70
2022/09/19 01:13:09;;;;;;;1.30;1.03;;;13.90;52.20;;;;;;5020822;28;21036;-70
2022/09/19 01:15:44;;;;;;;1.30;1.10;;;14.20;51.30;;;;;;5023427;28;20440;-70
2022/09/19 01:18:10;;;;;;;1.30;1.10;;;14.50;49.10;;;;;;5020875;28;20443;-70
2022/09/19 01:24:37;;;;;;;1.30;1.00;;;14.30;50.40;;;;;;5019325;28;21037;-70
2022/09/19 01:27:33;;;;;;;1.30;1.00;;;14.20;51.20;;;;;;5015535;28;20436;-70
2022/09/19 01:29:59;;;;;;;1.30;1.03;;;14.40;50.90;;;;;;5028424;28;20431;-70
2022/09/19 01:32:38;;;;;;;1.30;1.10;;;14.40;50.90;;;;;;5028491;28;20978;-73
2022/09/19 01:35:08;;;;;;;1.30;1.10;;;14.40;51.20;;;;;;5031483;28;20195;-70
2022/09/19 01:37:47;;;;;;;1.30;1.10;;;14.50;50.30;;;;;;5027382;28;21222;-71
2022/09/19 01:40:14;;;;;;;1.30;1.00;;;14.40;50.80;;;;;;5019767;28;20522;-70
2022/09/19 01:42:55;;;;;;;1.30;1.10;;;14.50;50.30;;;;;;5022636;28;20451;-70
2022/09/19 01:45:27;;;;;;;1.30;1.10;;;14.90;50.40;;;;;;5023536;28;20423;-71
2022/09/19 01:48:10;;;;;;;1.30;1.03;;;14.50;49.40;;;;;;5024165;28;20431;-70
2022/09/19 01:50:36;;;;;;;1.30;1.10;;;14.70;48.20;;;;;;5026059;28;20477;-70
2022/09/19 01:53:19;;;;;;;1.30;1.10;;;14.70;48.80;;;;;;5019814;28;20472;-70
2022/09/19 01:56:14;;;;;;;1.30;1.10;;;14.50;48.90;;;;;;5015411;28;20201;-71
2022/09/19 01:58:47;;;;;;;1.30;1.00;;;14.60;47.20;;;;;;5004244;28;20819;-70
2022/09/19 02:01:27;;;;;;;1.30;1.00;;;14.70;46.60;;;;;;5023341;28;20540;-70
2022/09/19 02:04:20;;;;;;;1.30;1.20;;;14.70;45.20;;;;;;5020600;28;20439;-70
2022/09/19 02:06:55;;;;;;;1.30;1.00;;;14.70;45.80;;;;;;5018573;28;20411;-70
2022/09/19 02:09:44;;;;;;;1.30;1.00;;;14.70;47.20;;;;;;5029718;28;20897;-70
2022/09/19 02:12:12;;;;;;;1.30;1.10;;;14.30;48.10;;;;;;5021647;28;20924;-70
2022/09/19 02:14:41;;;;;;;1.30;1.10;;;14.50;46.70;;;;;;5024066;28;20434;-70
2022/09/19 02:17:14;;;;;;;1.30;1.10;;;14.80;46.70;;;;;;5025380;28;20447;-71
2022/09/19 02:19:44;;;;;;;1.30;1.00;;;14.80;46.70;;;;;;5021923;28;20424;-69
2022/09/19 02:22:27;;;;;;;1.30;1.00;;;14.30;47.90;;;;;;5013812;28;20440;-70
2022/09/19 02:24:59;;;;;;;1.30;1.20;;;14.20;48.80;;;;;;5026572;28;20434;-70
2022/09/19 02:27:29;;;;;;;1.30;1.00;;;13.90;49.50;;;;;;5021721;28;20427;-70
2022/09/19 02:30:02;;;;;;;1.30;1.10;;;14.00;48.00;;;;;;5028490;28;20485;-70
2022/09/19 02:32:28;;;;;;;1.30;1.10;;;14.30;48.00;;;;;;5014239;28;20478;-71
2022/09/19 02:34:55;;;;;;;1.30;1.10;;;14.20;48.10;;;;;;5021997;28;20424;-72
2022/09/19 02:37:47;;;;;;;1.30;1.00;;;13.90;48.20;;;;;;5027717;28;20251;-72
2022/09/19 02:40:47;;;;;;;1.30;1.20;;;13.80;48.20;;;;;;5025877;28;20239;-72
2022/09/19 02:43:36;;;;;;;1.30;1.10;;;13.90;48.20;;;;;;5031315;28;20808;-70
2022/09/19 02:46:34;;;;;;;1.30;1.10;;;13.80;47.80;;;;;;5024293;28;20185;-70
2022/09/19 02:49:29;;;;;;;1.30;1.00;;;13.60;48.70;;;;;;5019215;28;20440;-70
2022/09/19 02:51:59;;;;;;;1.30;1.10;;;13.80;47.90;;;;;;5019574;28;20481;-71
2022/09/19 02:54:34;;;;;;;1.30;1.20;;;13.90;47.10;;;;;;5018191;28;20187;-71
2022/09/19 02:57:06;;;;;;;1.30;1.02;;;13.70;48.40;;;;;;5028311;28;20538;-70
2022/09/19 02:59:35;;;;;;;1.30;1.00;;;13.70;47.70;;;;;;5022377;28;20710;-70
2022/09/19 03:02:08;;;;;;;1.30;1.10;;;13.60;48.60;;;;;;5023032;28;21234;-70
2022/09/19 03:04:43;;;;;;;1.30;1.05;;;13.80;48.40;;;;;;5030452;28;20449;-71
2022/09/19 03:07:33;;;;;;;1.30;1.00;;;13.70;48.40;;;;;;5030151;28;20935;-69
2022/09/19 03:10:08;;;;;;;1.30;1.00;;;14.00;48.30;;;;;;5018341;28;20816;-70
2022/09/19 03:12:53;;;;;;;1.30;1.00;;;13.60;47.50;;;;;;5019018;28;20236;-70
2022/09/19 03:15:36;;;;;;;1.30;1.17;;;13.50;48.70;;;;;;5013026;28;20897;-71
2022/09/19 03:18:05;;;;;;;1.30;1.20;;;13.40;47.80;;;;;;5023752;28;20415;-70
2022/09/19 03:20:38;;;;;;;1.30;1.10;;;13.20;49.00;;;;;;5028402;28;20455;-71
2022/09/19 03:23:05;;;;;;;1.30;1.00;;;13.20;49.20;;;;;;5019880;28;20415;-70
2022/09/19 03:25:30;;;;;;;1.30;1.10;;;13.60;49.80;;;;;;5012173;28;20300;-70
2022/09/19 03:27:57;;;;;;;1.30;1.10;;;13.30;49.00;;;;;;5011228;28;20178;-70
2022/09/19 03:30:24;;;;;;;1.30;1.00;;;12.70;49.30;;;;;;5017439;28;20200;-71
2022/09/19 03:32:49;;;;;;;1.30;1.00;;;13.10;49.70;;;;;;5018106;28;20240;-71
2022/09/19 03:35:15;;;;;;;1.30;1.00;;;13.30;49.00;;;;;;5011812;28;20197;-70
2022/09/19 03:37:41;;;;;;;1.30;1.20;;;13.20;48.80;;;;;;5020029;28;20469;-70
2022/09/19 03:40:07;;;;;;;1.30;1.10;;;13.10;49.90;;;;;;5013528;28;20452;-71
2022/09/19 03:42:34;;;;;;;1.30;1.00;;;13.10;49.80;;;;;;5013205;28;20951;-73
2022/09/19 03:45:04;;;;;;;1.30;1.10;;;13.30;49.10;;;;;;5025510;28;20621;-69
2022/09/19 03:47:29;;;;;;;1.30;1.10;;;13.80;47.90;;;;;;5019625;28;20200;-71
2022/09/19 03:49:55;;;;;;;1.30;1.00;;;13.50;48.00;;;;;;5024939;28;20623;-70
2022/09/19 03:52:21;;;;;;;1.30;1.00;;;13.10;48.30;;;;;;5021305;28;20248;-69
2022/09/19 03:54:46;;;;;;;1.30;1.10;;;13.10;47.90;;;;;;5012198;28;20513;-70
2022/09/19 03:57:14;;;;;;;1.30;1.10;;;13.10;49.80;;;;;;5012128;28;20652;-70
2022/09/19 03:59:41;;;;;;;1.30;1.10;;;13.30;46.30;;;;;;5027702;28;20660;-69
2022/09/19 04:02:07;;;;;;;1.30;1.00;;;13.10;46.40;;;;;;5012138;28;20288;-70
2022/09/19 04:04:33;;;;;;;1.30;1.05;;;13.50;48.20;;;;;;5011662;28;20955;-70
2022/09/19 04:07:01;;;;;;;1.30;1.10;;;13.00;47.40;;;;;;5016162;28;20216;-70
2022/09/19 04:09:26;;;;;;;1.30;1.00;;;13.10;48.30;;;;;;5023170;28;20431;-70
2022/09/19 04:11:52;;;;;;;1.30;1.10;;;13.10;45.70;;;;;;5011426;28;20560;-70
2022/09/19 04:14:18;;;;;;;1.30;1.03;;;13.00;47.20;;;;;;5019974;28;20169;-72
2022/09/19 04:16:43;;;;;;;1.30;1.00;;;13.20;45.20;;;;;;5011711;28;20568;-69
2022/09/19 04:19:12;;;;;;;1.30;1.10;;;12.50;46.40;;;;;;5016220;28;20177;-69
2022/09/19 04:21:41;;;;;;;1.30;1.00;;;12.80;48.80;;;;;;5030078;28;20230;-70
2022/09/19 04:24:08;;;;;;;1.30;1.00;;;13.00;46.40;;;;;;5015098;28;20259;-69
2022/09/19 04:26:33;;;;;;;1.30;1.10;;;12.80;47.30;;;;;;5031201;28;20183;-69
2022/09/19 04:29:02;;;;;;;1.30;1.10;;;12.70;48.90;;;;;;5020387;28;20189;-70
2022/09/19 04:31:28;;;;;;;1.30;1.10;;;13.00;47.80;;;;;;5011649;28;20198;-69
2022/09/19 04:33:56;;;;;;;1.30;1.00;;;12.80;47.80;;;;;;5011166;28;20680;-70
2022/09/19 04:36:23;;;;;;;1.30;1.00;;;13.30;47.30;;;;;;5015617;28;20184;-69
2022/09/19 04:38:49;;;;;;;1.30;1.10;;;13.00;46.80;;;;;;5022255;28;20186;-70
2022/09/19 04:41:15;;;;;;;1.33;1.20;;;13.00;47.00;;;;;;5011106;28;20216;-71
2022/09/19 04:43:40;;;;;;;1.30;1.00;;;13.00;46.60;;;;;;5018744;28;20195;-71
2022/09/19 04:46:06;;;;;;;1.30;1.10;;;12.90;47.40;;;;;;5011420;28;20184;-69
2022/09/19 04:48:32;;;;;;;1.30;1.10;;;12.90;48.10;;;;;;5019703;28;20177;-70
2022/09/19 04:50:57;;;;;;;1.30;1.00;;;12.80;48.30;;;;;;5011065;28;20220;-69
2022/09/19 04:53:26;;;;;;;1.30;1.00;;;13.00;46.90;;;;;;5010930;28;20459;-70
2022/09/19 04:55:53;;;;;;;1.30;1.00;;;13.00;46.70;;;;;;5019841;28;20177;-70
2022/09/19 04:58:20;;;;;;;1.30;1.10;;;13.50;45.80;;;;;;5030473;28;20184;-70
2022/09/19 05:00:55;;;;;;;1.30;1.10;;;13.20;46.90;;;;;;5020832;28;20172;-70
2022/09/19 05:03:25;;;;;;;1.30;1.10;;;13.50;47.60;;;;;;5011792;28;20540;-69
2022/09/19 05:05:51;;;;;;;1.30;1.20;;;13.00;46.30;;;;;;5011120;28;20239;-69
2022/09/19 05:08:25;;;;;;;1.30;1.00;;;12.80;46.20;;;;;;5019505;28;20181;-69
2022/09/19 05:10:54;;;;;;;1.30;1.17;;;12.60;47.10;;;;;;5025149;28;20177;-69
2022/09/19 05:13:20;;;;;;;1.30;1.10;;;12.30;46.00;;;;;;5027748;28;20521;-70
2022/09/19 05:15:45;;;;;;;1.30;1.00;;;11.90;47.00;;;;;;5011334;28;20543;-70
2022/09/19 05:18:11;;;;;;;1.30;1.00;;;11.50;49.90;;;;;;5020800;28;20526;-69
2022/09/19 05:20:39;;;;;;;1.30;1.10;;;11.30;53.00;;;;;;5026030;28;20200;-69
2022/09/19 05:23:05;;;;;;;1.30;1.10;;;11.60;51.40;;;;;;5018452;28;20416;-70
2022/09/19 05:25:36;;;;;;;1.30;1.00;;;12.20;50.60;;;;;;5022147;28;20218;-69
2022/09/19 05:28:05;;;;;;;1.30;1.20;;;12.40;48.60;;;;;;5023182;28;20479;-69
2022/09/19 05:30:32;;;;;;;1.30;1.10;;;12.80;48.70;;;;;;5021586;28;20482;-71
2022/09/19 05:32:59;;;;;;;1.30;1.10;;;12.40;48.80;;;;;;5014908;28;20198;-69
2022/09/19 05:35:25;;;;;;;1.30;1.10;;;12.60;47.90;;;;;;5011032;28;20416;-69
2022/09/19 05:37:51;;;;;;;1.30;1.10;;;12.70;47.60;;;;;;5019064;28;20482;-69
2022/09/19 05:40:17;;;;;;;1.30;1.10;;;12.90;46.70;;;;;;5017858;28;20177;-69
2022/09/19 05:42:44;;;;;;;1.30;1.13;;;12.70;46.20;;;;;;5018666;28;20565;-69
2022/09/19 05:45:11;;;;;;;1.30;1.10;;;12.70;46.40;;;;;;5009248;28;20450;-70
2022/09/19 05:47:39;;;;;;;1.30;1.10;;;12.70;47.00;;;;;;5032062;28;20845;-71
2022/09/19 05:50:07;;;;;;;1.30;1.07;;;12.50;46.00;;;;;;5025345;28;20434;-69
2022/09/19 05:55:26;;;;;;;1.30;1.10;;;12.40;49.10;;;;;;5030589;28;20470;-69
2022/09/19 05:57:53;;;;;;;1.30;1.10;;;12.90;46.20;;;;;;5025868;28;20425;-70
2022/09/19 06:00:24;;;;;;;1.30;1.05;;;12.90;46.70;;;;;;5033733;28;20446;-69
2022/09/19 06:03:03;;;;;;;1.30;1.10;;;12.60;45.30;;;;;;5025451;28;20207;-69
2022/09/19 06:05:32;;;;;;;1.30;1.10;;;11.60;49.20;;;;;;5024573;28;20550;-70
2022/09/19 06:07:58;;;;;;;1.30;1.10;;;11.80;51.70;;;;;;5013959;28;20519;-69
2022/09/19 06:10:26;;;;;;;1.30;1.00;;;12.40;49.70;;;;;;5030323;28;20481;-68
2022/09/19 06:12:55;;;;;;;1.30;1.00;;;12.00;49.70;;;;;;5017592;28;20520;-69
2022/09/19 06:15:21;;;;;;;1.30;1.00;;;12.20;48.30;;;;;;5025882;28;20189;-69
2022/09/19 06:17:56;;;;;;;1.30;1.10;;;11.70;51.10;;;;;;5016933;28;20423;-70
2022/09/19 06:20:21;;;;;;;1.30;1.20;;;12.20;49.40;;;;;;5017594;28;20419;-69
2022/09/19 06:22:47;;;;;;;1.30;1.20;;;12.50;47.20;;;;;;5014406;28;21007;-70
2022/09/19 06:25:13;;;;;;;1.30;1.00;;;12.20;47.80;;;;;;5013642;28;20192;-71
2022/09/19 06:27:44;;;;;;;1.30;1.00;;;12.10;48.30;;;;;;5022664;28;20427;-71
2022/09/19 06:30:10;;;;;;;1.30;1.10;;;12.30;48.10;;;;;;5019543;28;20470;-71
2022/09/19 06:32:38;;;;;;;1.30;1.20;;;12.10;47.80;;;;;;5020377;28;20913;-69
2022/09/19 06:35:04;;;;;;;1.30;1.00;;;12.20;48.70;;;;;;5013158;28;20523;-70
2022/09/19 06:37:30;;;;;;;1.30;1.10;;;12.50;48.80;;;;;;5013674;28;20440;-69
2022/09/19 06:39:56;;;;;;;1.30;1.00;;;13.10;45.70;;;;;;5021296;28;20190;-69
2022/09/19 06:42:22;;;;;;;1.30;1.00;;;13.30;44.30;;;;;;5027181;28;20199;-70
2022/09/19 06:44:47;;;;;;;1.30;1.10;;;13.60;43.90;;;;;;5022856;28;20514;-70
2022/09/19 06:47:13;;;;;;;1.30;1.10;;;13.30;44.80;;;;;;5018095;28;20173;-71
2022/09/19 06:49:39;;;;;;;1.30;1.10;;;13.60;44.00;;;;;;5021022;28;20227;-70
2022/09/19 06:52:04;;;;;;;1.30;1.10;;;13.80;43.90;;;;;;5012608;28;20245;-70
2022/09/19 06:54:31;;;;;;;1.30;1.00;;;12.50;45.30;;;;;;5013238;28;20589;-70
2022/09/19 06:56:56;;;;;;;1.30;1.10;;;12.80;45.60;;;;;;5023495;28;20697;-70
2022/09/19 06:59:22;;;;;;;1.30;1.00;;;12.70;44.80;;;;;;5017494;28;20424;-69
2022/09/19 07:01:47;;;;;;;1.30;1.10;;;12.50;45.30;;;;;;5013285;28;20203;-70
2022/09/19 07:04:13;;;;;;;1.30;1.10;;;12.50;46.70;;;;;;5024377;28;20181;-70
2022/09/19 07:06:39;;;;;;;1.30;1.10;;;13.20;45.20;;;;;;5016045;28;20559;-70
2022/09/19 07:09:07;;;;;;;1.30;1.10;;;13.60;43.40;;;;;;5012905;28;20177;-70
2022/09/19 07:11:35;;;;;;;1.30;1.10;;;12.70;44.10;;;;;;5013038;28;20697;-70
2022/09/19 07:14:01;;;;;;;1.30;1.20;;;12.40;46.90;;;;;;5027936;28;20556;-70
2022/09/19 07:16:27;;;;;;;1.30;1.10;;;12.60;48.30;;;;;;5027170;28;20465;-70
2022/09/19 07:18:52;;;;;;;1.30;1.10;;;13.00;45.80;;;;;;5022661;28;20552;-70
2022/09/19 07:21:18;;;;;;;1.30;1.00;;;12.80;45.30;;;;;;5024527;28;20768;-70
2022/09/19 07:23:45;;;;;;;1.33;1.20;;;12.60;46.40;;;;;;5015964;28;20177;-70
2022/09/19 07:26:11;;;;;;;1.30;1.00;;;12.90;44.80;;;;;;5015827;28;20734;-70
2022/09/19 07:28:37;;;;;;;1.30;1.10;;;13.10;45.50;;;;;;5024154;28;20427;-70
2022/09/19 07:31:03;;;;;;;1.37;1.20;;;13.60;43.30;;;;;;5023194;28;20220;-70
2022/09/19 07:33:30;;;;;;;1.30;1.10;;;13.60;42.90;;;;;;5025795;28;20223;-70
2022/09/19 07:35:56;;;;;;;1.30;1.10;;;13.10;43.70;;;;;;5012400;28;20209;-70
2022/09/19 07:38:24;;;;;;;1.30;1.10;;;12.80;45.90;;;;;;5012573;28;20427;-70
2022/09/19 07:40:50;;;;;;;1.30;1.10;;;13.00;45.00;;;;;;5019474;28;20451;-70
2022/09/19 07:43:16;;;;;;;1.30;1.10;;;12.40;47.90;;;;;;5012255;28;20966;-70
2022/09/19 07:45:48;;;;;;;1.30;1.10;;;13.00;45.90;;;;;;5012033;28;20207;-70
2022/09/19 07:48:15;;;;;;;1.30;1.03;;;12.80;47.60;;;;;;5018947;28;20460;-70
2022/09/19 07:50:40;;;;;;;1.30;1.10;;;13.20;45.20;;;;;;5012278;28;20470;-70
2022/09/19 07:53:10;;;;;;;1.30;1.10;;;13.30;45.60;;;;;;5011387;28;20491;-70
2022/09/19 07:55:36;;;;;;;1.30;1.10;;;13.60;44.30;;;;;;5019970;28;20192;-70
2022/09/19 07:58:03;;;;;;;1.30;1.20;;;13.60;44.20;;;;;;5012209;28;20951;-70
2022/09/19 08:00:31;;;;;;;1.30;1.10;;;13.50;46.60;;;;;;5012305;28;20723;-70
2022/09/19 08:03:02;;;;;;;1.30;1.20;;;13.50;47.10;;;;;;5027736;28;20458;-70
2022/09/19 08:05:34;;;;;;;1.30;1.10;;;13.00;48.10;;;;;;5019220;28;20451;-70
2022/09/19 08:08:00;;;;;;;1.30;1.13;;;13.50;46.10;;;;;;5012247;28;20416;-70
2022/09/19 08:10:26;;;;;;;1.30;1.10;;;14.30;43.40;;;;;;5012049;28;20984;-70
2022/09/19 08:12:52;;;;;;;1.30;1.10;;;14.70;41.30;;;;;;5012412;28;20552;-70
2022/09/19 08:15:19;;;;;;;1.30;1.10;;;15.00;41.20;;;;;;5011476;28;20847;-70
2022/09/19 08:17:59;;;;;;;1.30;1.00;;;14.60;41.00;;;;;;5011933;28;20553;-70
2022/09/19 08:20:26;;;;;;;1.30;1.10;;;13.90;44.50;;;;;;5018100;28;20443;-70
2022/09/19 08:22:56;;;;;;;1.30;1.20;;;14.50;43.00;;;;;;5019341;28;20452;-70
2022/09/19 08:25:27;;;;;;;1.30;1.10;;;15.00;41.10;;;;;;5011582;28;20463;-69
2022/09/19 08:27:53;;;;;;;1.30;1.10;;;15.40;40.00;;;;;;5011504;28;20480;-70
2022/09/19 08:30:19;;;;;;;1.30;1.10;;;15.80;40.50;;;;;;5030136;28;20428;-70
2022/09/19 08:32:46;;;;;;;1.30;1.10;;;15.80;37.70;;;;;;5021111;28;20841;-70
2022/09/19 08:35:14;;;;;;;1.30;1.10;;;15.50;38.10;;;;;;5014382;28;20935;-70
2022/09/19 08:37:39;;;;;;;1.30;1.10;;;15.20;40.90;;;;;;5011326;28;20450;-70
2022/09/19 08:40:19;;;;;;;1.30;1.20;;;15.40;40.40;;;;;;5011698;28;20464;-70
2022/09/19 08:42:50;;;;;;;1.30;1.10;;;15.50;40.30;;;;;;5009600;28;20290;-70
2022/09/19 08:45:27;;;;;;;1.30;1.10;;;14.50;40.40;;;;;;5010945;28;20467;-71
2022/09/19 08:47:55;;;;;;;1.30;1.20;;;13.60;44.50;;;;;;5017689;28;20436;-70
2022/09/19 08:50:29;;;;;;;1.30;1.20;;;13.50;46.80;;;;;;5012022;28;20796;-70
2022/09/19 08:53:00;;;;;;;1.30;1.10;;;13.10;48.20;;;;;;5010703;28;20465;-70
2022/09/19 08:55:29;;;;;;;1.30;1.13;;;13.10;48.80;;;;;;5018792;28;20456;-70
2022/09/19 08:58:03;;;;;;;1.30;1.10;;;13.70;46.70;;;;;;5011244;28;20431;-70
2022/09/19 09:00:37;;;;;;;1.30;1.07;;;13.90;45.50;;;;;;5011970;28;20426;-70
2022/09/19 09:03:07;;;;;;;1.30;1.07;;;14.30;43.80;;;;;;5010757;28;20421;-69
2022/09/19 09:05:42;;;;;;;1.30;1.20;;;14.10;43.90;;;;;;5014426;28;20461;-70
2022/09/19 09:08:41;;;;;;;1.30;1.10;;;14.60;44.20;;;;;;5022171;28;20814;-71
2022/09/19 09:11:20;;;;;;;1.30;1.20;;;15.10;42.20;;;;;;5012043;28;20808;-70
2022/09/19 09:14:00;;;;;;;1.30;1.20;;;14.70;42.50;;;;;;5011317;28;20455;-70
2022/09/19 09:16:41;;;;;;;1.30;1.10;;;14.40;43.80;;;;;;5011367;28;20435;-70
2022/09/19 09:19:27;;;;;;;1.30;1.10;;;13.90;45.80;;;;;;5018317;28;20429;-70
2022/09/19 09:22:03;;;;;;;1.30;1.20;;;13.90;45.10;;;;;;5011757;28;20661;-70
2022/09/19 09:24:34;;;;;;;1.30;1.10;;;14.40;44.60;;;;;;5014971;28;20917;-71
2022/09/19 09:27:04;;;;;;;1.30;1.10;;;15.20;44.20;;;;;;5022366;28;20503;-69
2022/09/19 09:29:37;;;;;;;1.30;1.20;;;14.80;42.80;;;;;;5023673;28;20416;-70
2022/09/19 09:32:17;;;;;;;1.30;1.10;;;15.10;42.10;;;;;;5033637;28;20470;-70
2022/09/19 09:34:52;;;;;;;1.30;1.30;;;15.00;40.10;;;;;;5014325;28;20444;-70
2022/09/19 09:37:34;;;;;;;1.30;1.20;;;14.30;43.30;;;;;;5013470;28;20963;-70
2022/09/19 09:40:13;;;;;;;1.30;1.20;;;13.60;45.20;;;;;;5022160;28;20461;-70
2022/09/19 09:42:47;;;;;;;1.30;1.17;;;14.10;45.10;;;;;;5013725;28;20439;-70
2022/09/19 09:45:27;;;;;;;1.30;1.10;;;14.40;43.20;;;;;;5015479;28;20484;-70
2022/09/19 09:48:08;;;;;;;1.30;1.10;;;14.20;44.50;;;;;;5015583;28;20419;-70
2022/09/19 09:50:34;;;;;;;1.30;1.10;;;14.50;42.50;;;;;;5014356;28;20431;-70
2022/09/19 09:53:15;;;;;;;1.30;1.13;;;14.70;42.10;;;;;;5013980;28;21014;-70
2022/09/19 09:56:17;;;;;;;1.30;1.20;;;14.60;41.70;;;;;;5022200;28;20502;-70
2022/09/19 09:58:42;;;;;;;1.30;1.10;;;14.50;41.60;;;;;;5015648;28;20499;-70
2022/09/19 10:04:25;;;;;;;1.30;1.10;;;14.80;41.10;;;;;;5013962;28;20434;-70
2022/09/19 10:07:09;;;;;;;1.30;1.20;;;14.80;42.80;;;;;;5017592;28;20423;-70
2022/09/19 10:09:40;;;;;;;1.30;1.10;;;14.40;42.60;;;;;;5025289;28;20468;-70
2022/09/19 10:12:23;;;;;;;1.30;1.10;;;15.40;41.80;;;;;;5032825;28;20463;-70
2022/09/19 10:14:55;;;;;;;1.30;1.10;;;15.20;40.70;;;;;;5021185;28;20420;-70
2022/09/19 10:17:23;;;;;;;1.30;1.10;;;16.00;37.20;;;;;;5022181;28;20467;-70
2022/09/19 10:19:56;;;;;;;1.30;1.00;;;15.70;37.70;;;;;;5013784;28;20447;-70
2022/09/19 10:22:22;;;;;;;1.30;1.10;;;16.00;38.00;;;;;;5028603;28;20443;-70
2022/09/19 10:24:55;;;;;;;1.30;1.20;;;15.40;37.70;;;;;;5012680;28;20547;-70
2022/09/19 10:27:37;;;;;;;1.30;1.00;;;15.00;41.70;;;;;;5013536;28;20428;-70
2022/09/19 10:30:15;;;;;;;1.30;1.10;;;15.20;41.60;;;;;;5027354;28;20470;-70
2022/09/19 10:32:43;;;;;;;1.30;1.03;;;14.90;41.10;;;;;;5012598;28;20565;-70
2022/09/19 10:35:38;;;;;;;1.30;1.10;;;14.70;41.40;;;;;;5016866;28;20438;-70
2022/09/19 10:38:20;;;;;;;1.30;1.20;;;14.70;41.90;;;;;;5033737;28;20933;-71
2022/09/19 10:40:58;;;;;;;1.30;1.13;;;14.80;41.80;;;;;;5014756;28;20900;-71
2022/09/19 10:43:31;;;;;;;1.30;1.20;;;14.90;41.20;;;;;;5029031;28;20419;-70
2022/09/19 10:46:06;;;;;;;1.30;1.10;;;14.40;41.70;;;;;;5015066;28;20412;-71
2022/09/19 10:48:34;;;;;;;1.30;1.10;;;14.90;41.90;;;;;;5026789;28;20844;-70
2022/09/19 10:51:06;;;;;;;1.30;1.20;;;14.40;41.20;;;;;;5020347;28;20452;-71
2022/09/19 10:53:33;;;;;;;1.30;1.10;;;14.60;41.40;;;;;;5013083;28;20509;-70
2022/09/19 10:56:10;;;;;;;1.30;1.10;;;15.20;38.00;;;;;;5021774;28;20428;-71
2022/09/19 10:58:40;;;;;;;1.30;1.20;;;14.90;38.70;;;;;;5012979;28;20783;-70
2022/09/19 11:01:19;;;;;;;1.30;1.00;;;15.00;41.20;;;;;;5013029;28;20452;-70
2022/09/19 11:03:58;;;;;;;1.30;1.10;;;14.60;41.20;;;;;;5020732;28;20910;-71
2022/09/19 11:06:24;;;;;;;1.30;1.10;;;14.70;41.40;;;;;;5018575;28;20554;-71
2022/09/19 11:08:53;;;;;;;1.30;1.00;;;14.40;42.30;;;;;;5012873;28;20522;-71
2022/09/19 11:11:37;;;;;;;1.30;1.10;;;14.50;42.90;;;;;;5018753;28;20680;-71
2022/09/19 11:14:15;;;;;;;1.30;1.10;;;14.70;41.60;;;;;;5031904;28;20461;-71
2022/09/19 11:16:44;;;;;;;1.30;1.13;;;15.10;40.30;;;;;;5015748;28;20811;-71
2022/09/19 11:19:26;;;;;;;1.30;1.10;;;15.40;38.60;;;;;;5016435;28;20836;-72
2022/09/19 11:21:58;;;;;;;1.30;1.10;;;15.20;40.00;;;;;;5023340;28;20460;-71
2022/09/19 11:24:57;;;;;;;1.30;1.10;;;15.80;38.90;;;;;;5023468;28;20475;-71
2022/09/19 11:27:49;;;;;;;1.30;1.10;;;15.60;39.40;;;;;;5012953;28;20444;-71
2022/09/19 11:30:19;;;;;;;1.30;1.10;;;16.40;36.90;;;;;;4997009;28;20773;-71
2022/09/19 11:33:02;;;;;;;1.30;1.10;;;16.10;37.30;;;;;;5019618;28;20463;-71
2022/09/19 11:35:39;;;;;;;1.30;1.10;;;15.90;37.80;;;;;;5012095;28;20416;-71
2022/09/19 11:38:23;;;;;;;1.30;1.10;;;15.20;41.00;;;;;;5027919;28;21639;-71
2022/09/19 11:41:02;;;;;;;1.30;1.30;;;15.20;43.50;;;;;;5010596;28;20475;-71
2022/09/19 11:44:20;;;;;;;1.30;1.10;;;15.60;42.30;;;;;;5012214;28;20417;-71
2022/09/19 11:47:02;;;;;;;1.30;1.00;;;15.00;47.50;;;;;;5000727;28;20887;-70
2022/09/19 11:49:51;;;;;;;1.30;1.30;;;14.50;53.20;;;;;;5012302;28;20455;-71
2022/09/19 11:52:57;;;;;;;1.30;1.10;;;15.50;52.60;;;;;;5011060;28;20464;-71
2022/09/19 11:55:46;;;;;;;1.30;1.10;;;15.40;45.60;;;;;;5015906;28;20443;-70
2022/09/19 11:58:44;;;;;;;1.30;1.20;;;15.10;47.80;;;;;;5022909;28;20512;-70
2022/09/19 12:01:40;;;;;;;1.30;1.20;;;15.00;47.30;;;;;;5012932;28;20883;-70
2022/09/19 12:04:26;;;;;;;1.30;1.20;;;15.50;44.90;;;;;;5011771;28;20842;-70
2022/09/19 12:06:52;;;;;;;1.30;1.10;;;16.90;41.80;;;;;;5011965;28;20424;-70
2022/09/19 12:09:26;;;;;;;1.30;1.10;;;18.10;39.90;;;;;;5012443;28;20428;-70
2022/09/19 12:11:57;;;;;;;1.30;1.10;;;18.70;32.30;;;;;;5010140;28;20527;-70
2022/09/19 12:14:39;;;;;;;1.30;1.20;;;18.70;33.10;;;;;;5012742;28;20487;-70
2022/09/19 12:17:12;;;;;;;1.30;1.13;;;19.00;32.30;;;;;;5011636;28;20434;-70
2022/09/19 12:19:47;;;;;;;1.30;1.10;;;18.70;33.10;;;;;;5012396;28;20753;-70
2022/09/19 12:22:20;;;;;;;1.30;1.10;;;17.30;35.80;;;;;;5019119;28;20505;-70
2022/09/19 12:24:54;;;;;;;1.30;1.20;;;16.50;40.20;;;;;;5011289;28;20943;-70
2022/09/19 12:27:43;;;;;;;1.30;1.10;;;15.80;39.30;;;;;;5011639;28;20931;-70
2022/09/19 12:30:20;;;;;;;1.30;1.20;;;15.30;42.00;;;;;;5018119;28;20415;-70
2022/09/19 12:33:06;;;;;;;1.30;1.20;;;15.10;42.90;;;;;;5024977;28;20459;-70
2022/09/19 12:35:45;;;;;;;1.30;1.10;;;15.50;42.60;;;;;;5019645;28;20796;-70
2022/09/19 12:38:44;;;;;;;1.30;1.10;;;15.60;41.00;;;;;;5019366;28;20420;-70
2022/09/19 12:41:37;;;;;;;1.30;1.10;;;15.60;39.80;;;;;;5011166;28;20843;-70
2022/09/19 12:44:09;;;;;;;1.30;1.10;;;15.60;41.20;;;;;;5010780;28;20420;-70
2022/09/19 12:46:51;;;;;;;1.30;1.20;;;15.50;41.40;;;;;;5019287;28;20408;-70
2022/09/19 12:49:28;;;;;;;1.30;1.10;;;15.60;40.30;;;;;;5019418;28;20408;-70
2022/09/19 12:52:18;;;;;;;1.30;1.10;;;15.50;43.40;;;;;;5010631;28;20978;-71
2022/09/19 12:55:15;;;;;;;1.30;1.10;;;15.20;41.90;;;;;;5011121;28;20425;-70
2022/09/19 12:57:47;;;;;;;1.30;1.00;;;14.90;46.50;;;;;;5014287;28;20425;-70
2022/09/19 13:00:13;;;;;;;1.30;1.10;;;14.60;48.60;;;;;;5022967;28;20932;-70
2022/09/19 13:02:59;;;;;;;1.30;1.10;;;14.70;49.60;;;;;;5014888;28;20435;-70
2022/09/19 13:05:36;;;;;;;1.30;1.10;;;15.10;47.40;;;;;;5014939;28;20412;-71
2022/09/19 13:08:12;;;;;;;1.30;1.20;;;15.20;44.10;;;;;;5021486;28;20416;-71
2022/09/19 13:10:42;;;;;;;1.30;1.10;;;15.40;45.60;;;;;;5014843;28;20450;-71
2022/09/19 13:13:35;;;;;;;1.30;1.13;;;16.70;43.60;;;;;;5014658;28;20454;-71
2022/09/19 13:16:06;;;;;;;1.30;1.10;;;17.40;38.80;;;;;;5014759;28;20446;-71
2022/09/19 13:24:04;;;;;;;1.30;1.20;;;17.20;35.20;;;;;;5028440;28;20945;-71
2022/09/19 13:26:36;;;;;;;1.30;1.10;;;16.20;37.10;;;;;;5014671;28;20430;-71
2022/09/19 13:29:26;;;;;;;1.30;1.10;;;15.80;38.60;;;;;;5022457;28;20411;-71
2022/09/19 13:31:55;;;;;;;1.30;1.20;;;16.20;39.20;;;;;;5025225;28;20448;-70